ザグレブ の空港の天気 - METARとTAF

ザグレブ国際空港 ( LDZA / ZAG ) - クロアチア ザグレブ
飛行場実況気象(Metar)
観測時間02/05 21:30 CET (02/05 20:30 UTC)
風向・風速東北東 2m/s
視程10km以上
天気現象
なし
気温-4℃
湿度68%
気圧1035hPa
METARLDZA 052030Z 06003KT 030V090 CAVOK M04/M09 Q1035 NOSIG
過去の天気等 Google飛行場航空写真 Wunderground天気予報

過去48時間のMETAR

飛行場予報(TAF)
発表時間: 2/05 18:25 CET (2/05 17:25 UTC)
予報対象時間: 5日19時 CET ~ 6日19時 CET
風向・風速北東 3m/s
視程10km以上
なし
TAF LDZA 051725Z 0518/0618 04006KT CAVOK TX00/0613Z TNM05/0605Z